Time;durP1;ratioP1;P1;durP2;ratioP2;P2;SDS_P1;SDS_P2;PMS_P1;PMS_P2;Temp;Humidity;BMP_temperature;BMP_pressure;BME280_temperature;BME280_humidity;BME280_pressure;Samples;Min_cycle;Max_cycle;Signal;HPM_P1;HPM_P2
2022/08/04 13:02:11;;;;;;;3.50;3.20;;;24.00;58.60;;;;;;6420618;22;20223;-89
2022/08/04 13:04:42;;;;;;;3.22;2.92;;;23.90;58.50;;;;;;6354548;22;20237;-90
2022/08/04 13:07:44;;;;;;;3.55;3.25;;;23.90;58.60;;;;;;6300789;22;20557;-90
2022/08/04 13:10:28;;;;;;;3.67;3.03;;;23.90;58.40;;;;;;6308467;22;20219;-91
2022/08/04 13:17:10;;;;;;;;;;;;;;;;;;;;;
2022/08/04 13:19:51;;;;;;;3.40;3.10;;;24.00;59.10;;;;;;6120383;23;20206;-90
2022/08/04 13:26:04;;;;;;;;;;;;;;;;;;;;;
2022/08/04 13:29:20;;;;;;;3.60;2.70;;;24.10;58.30;;;;;;6068984;23;20686;-90
2022/08/04 13:31:48;;;;;;;3.30;3.05;;;24.20;57.90;;;;;;6012002;23;20204;-89
2022/08/04 13:34:14;;;;;;;3.20;2.90;;;24.20;57.80;;;;;;6012901;23;20222;-90
2022/08/04 13:36:43;;;;;;;3.65;3.08;;;24.20;57.60;;;;;;6013028;23;20159;-89
2022/08/04 13:39:17;;;;;;;3.38;3.08;;;24.20;57.50;;;;;;6013436;23;20154;-89
2022/08/04 13:41:50;;;;;;;3.40;2.90;;;24.30;57.30;;;;;;5988031;24;20170;-89
2022/08/04 13:44:22;;;;;;;3.30;3.00;;;24.20;57.40;;;;;;5965114;23;20695;-90
2022/08/04 13:47:04;;;;;;;3.60;2.88;;;24.20;57.40;;;;;;6015807;23;20170;-90
2022/08/04 13:49:30;;;;;;;3.30;3.00;;;24.30;57.40;;;;;;6029370;23;20186;-89
2022/08/04 13:52:02;;;;;;;3.05;2.85;;;24.30;57.40;;;;;;6021405;23;20574;-89
2022/08/04 13:54:41;;;;;;;2.90;2.60;;;24.20;57.40;;;;;;6021220;23;20142;-90
2022/08/04 13:57:14;;;;;;;2.83;2.60;;;24.30;57.30;;;;;;5997512;23;20216;-90
2022/08/04 13:59:49;;;;;;;2.88;2.58;;;24.30;57.00;;;;;;6019810;23;20157;-90
2022/08/04 14:02:52;;;;;;;2.92;2.63;;;24.30;57.00;;;;;;6121675;23;20663;-90
2022/08/04 14:05:22;;;;;;;3.30;3.00;;;24.40;57.00;;;;;;6199460;23;20604;-90
2022/08/04 14:07:57;;;;;;;3.58;3.28;;;24.30;57.10;;;;;;6209165;22;20184;-91
2022/08/04 14:10:26;;;;;;;2.70;2.50;;;24.30;57.10;;;;;;6265752;22;20143;-90
2022/08/04 14:12:54;;;;;;;3.20;2.90;;;24.40;56.90;;;;;;6284378;22;20212;-90
2022/08/04 14:15:30;;;;;;;2.97;2.60;;;24.30;56.90;;;;;;6297993;22;20596;-90
2022/08/04 14:18:21;;;;;;;3.15;2.85;;;24.40;56.90;;;;;;6321658;22;20142;-90
2022/08/04 14:21:05;;;;;;;2.90;2.70;;;24.40;56.90;;;;;;6316300;22;20179;-90
2022/08/04 14:23:44;;;;;;;2.95;2.75;;;24.40;56.80;;;;;;6314322;22;20174;-90
2022/08/04 14:26:31;;;;;;;2.75;2.55;;;24.50;56.60;;;;;;6262876;22;20184;-90
2022/08/04 14:29:16;;;;;;;2.90;2.70;;;24.50;57.30;;;;;;6263465;22;20151;-89
2022/08/04 14:31:47;;;;;;;3.58;2.70;;;24.50;56.60;;;;;;6263164;22;20167;-89
2022/08/04 14:34:25;;;;;;;3.17;2.97;;;24.50;56.60;;;;;;6220494;23;20540;-89
2022/08/04 14:36:54;;;;;;;3.30;3.00;;;24.40;56.80;;;;;;6245388;23;20145;-90
2022/08/04 14:39:36;;;;;;;2.90;2.70;;;24.40;56.70;;;;;;6247494;23;20161;-90
2022/08/04 14:42:05;;;;;;;3.80;2.90;;;24.40;56.80;;;;;;6248361;23;20652;-90
2022/08/04 14:44:55;;;;;;;3.45;3.15;;;24.40;56.90;;;;;;6222659;23;20232;-91
2022/08/04 14:47:46;;;;;;;2.92;2.70;;;24.40;57.00;;;;;;6193718;23;20204;-90
2022/08/04 14:50:17;;;;;;;3.33;3.03;;;24.40;57.00;;;;;;6219835;23;20163;-90
2022/08/04 14:52:43;;;;;;;3.53;2.67;;;24.40;57.10;;;;;;6246624;22;20183;-89
2022/08/04 14:55:20;;;;;;;3.00;2.70;;;24.30;57.20;;;;;;6225854;22;20180;-90
2022/08/04 14:57:46;;;;;;;3.13;2.88;;;24.40;57.30;;;;;;6251768;22;20148;-90
2022/08/04 15:00:25;;;;;;;3.15;2.85;;;24.40;57.20;;;;;;6251465;22;20232;-90
2022/08/04 15:02:51;;;;;;;3.30;3.00;;;24.50;57.10;;;;;;6225291;22;20234;-90
2022/08/04 15:05:19;;;;;;;2.97;2.70;;;24.50;57.00;;;;;;6265805;22;20158;-90
2022/08/04 15:07:49;;;;;;;3.28;2.97;;;24.50;56.90;;;;;;6295964;22;20512;-90
2022/08/04 15:10:16;;;;;;;3.20;2.90;;;24.50;56.80;;;;;;6296549;22;20147;-90
2022/08/04 15:12:50;;;;;;;3.17;2.88;;;24.50;56.80;;;;;;6295012;22;20621;-89
2022/08/04 15:15:16;;;;;;;3.00;2.58;;;24.50;56.80;;;;;;6283473;22;20230;-90
2022/08/04 15:17:43;;;;;;;3.08;2.85;;;24.50;56.90;;;;;;6257280;22;20236;-90
2022/08/04 15:20:10;;;;;;;3.10;2.85;;;24.50;56.80;;;;;;6258054;22;20210;-90
2022/08/04 15:22:36;;;;;;;3.10;2.80;;;24.50;56.80;;;;;;6257256;22;20148;-90
2022/08/04 15:25:06;;;;;;;3.42;3.13;;;24.50;56.90;;;;;;6256855;22;20160;-90
2022/08/04 15:27:33;;;;;;;2.95;2.75;;;24.50;56.80;;;;;;6258749;22;20148;-90
2022/08/04 15:30:01;;;;;;;2.92;2.72;;;24.50;56.90;;;;;;6256357;22;20514;-90
2022/08/04 15:32:34;;;;;;;3.08;2.78;;;24.50;56.90;;;;;;6231551;22;20171;-90
2022/08/04 15:35:05;;;;;;;3.05;2.85;;;24.50;56.90;;;;;;6232444;22;20159;-90
2022/08/04 15:37:59;;;;;;;3.10;2.80;;;24.50;56.90;;;;;;6257433;22;20144;-90
2022/08/04 15:40:50;;;;;;;3.30;3.00;;;24.50;57.10;;;;;;6282650;22;20159;-90
2022/08/04 15:43:49;;;;;;;2.95;2.67;;;24.50;57.30;;;;;;6256727;22;20190;-90
2022/08/04 15:46:15;;;;;;;3.10;2.80;;;24.60;57.50;;;;;;6275561;22;20159;-90
2022/08/04 15:48:41;;;;;;;3.45;3.15;;;24.60;57.40;;;;;;6288805;22;20226;-89
2022/08/04 15:51:09;;;;;;;3.15;2.85;;;24.50;57.40;;;;;;6295032;22;20181;-90
2022/08/04 15:54:16;;;;;;;3.15;2.88;;;24.60;57.70;;;;;;6295873;22;20170;-90
2022/08/04 15:56:47;;;;;;;3.08;2.88;;;24.50;57.40;;;;;;6328721;22;20538;-89
2022/08/04 15:59:15;;;;;;;3.25;2.95;;;24.50;57.60;;;;;;6294762;22;20173;-89
2022/08/04 16:01:43;;;;;;;3.53;3.22;;;24.60;57.90;;;;;;6296226;22;20150;-89
2022/08/04 16:04:25;;;;;;;2.97;2.70;;;24.50;57.60;;;;;;6293664;22;20219;-90
2022/08/04 16:07:04;;;;;;;3.30;3.00;;;24.50;57.90;;;;;;6296134;22;20142;-90
2022/08/04 16:09:32;;;;;;;3.40;3.10;;;24.60;57.90;;;;;;6297247;22;20153;-90
2022/08/04 16:11:59;;;;;;;3.30;3.00;;;24.60;57.80;;;;;;6291061;22;20316;-89
2022/08/04 16:14:34;;;;;;;3.40;3.10;;;24.60;57.80;;;;;;6288655;22;20165;-90
2022/08/04 16:17:16;;;;;;;3.20;2.90;;;24.60;57.70;;;;;;6287628;22;20162;-90
2022/08/04 16:19:53;;;;;;;2.97;2.78;;;24.60;57.80;;;;;;6288357;22;20139;-90
2022/08/04 16:22:39;;;;;;;3.17;2.95;;;24.70;57.70;;;;;;6280349;22;20148;-90
2022/08/04 16:25:07;;;;;;;2.90;2.70;;;24.60;57.60;;;;;;6311413;22;20514;-91
2022/08/04 16:27:37;;;;;;;3.10;2.80;;;24.60;57.70;;;;;;6217825;23;20153;-90
2022/08/04 16:30:06;;;;;;;3.10;2.83;;;24.70;57.50;;;;;;6169483;23;20168;-90
2022/08/04 16:32:41;;;;;;;3.38;3.08;;;24.60;57.60;;;;;;6106270;23;20183;-90
2022/08/04 16:35:20;;;;;;;3.33;3.03;;;24.60;57.60;;;;;;6130960;23;20155;-91
2022/08/04 16:37:49;;;;;;;3.40;3.10;;;24.60;57.70;;;;;;6096411;23;20228;-91
2022/08/04 16:40:31;;;;;;;3.15;2.95;;;24.60;57.70;;;;;;6096529;23;20163;-90
2022/08/04 16:43:01;;;;;;;2.97;2.78;;;24.60;57.80;;;;;;6120957;23;20171;-90
2022/08/04 16:45:45;;;;;;;3.38;3.08;;;24.60;57.80;;;;;;6072529;23;20517;-90
2022/08/04 16:48:12;;;;;;;2.92;2.72;;;24.60;57.80;;;;;;6120035;23;20192;-91
2022/08/04 16:50:55;;;;;;;3.08;2.88;;;24.60;57.80;;;;;;6090026;23;20589;-90
2022/08/04 16:53:23;;;;;;;3.00;2.80;;;24.60;57.70;;;;;;6049878;23;20267;-91
2022/08/04 16:55:52;;;;;;;3.00;2.78;;;24.60;57.80;;;;;;6049640;23;20601;-90
2022/08/04 16:58:26;;;;;;;3.40;3.10;;;24.60;58.00;;;;;;6048885;23;20183;-90
2022/08/04 17:00:52;;;;;;;3.00;2.80;;;24.60;57.80;;;;;;6072237;23;20486;-90
2022/08/04 17:03:18;;;;;;;3.30;3.00;;;24.60;57.90;;;;;;6076818;23;20510;-90
2022/08/04 17:05:46;;;;;;;2.97;2.75;;;24.60;57.90;;;;;;6164402;23;20165;-90
2022/08/04 17:08:19;;;;;;;2.90;2.70;;;24.60;57.90;;;;;;6189584;23;20189;-90
2022/08/04 17:10:47;;;;;;;3.47;3.17;;;24.60;57.80;;;;;;6184349;23;20479;-90
2022/08/04 17:13:30;;;;;;;3.30;3.00;;;24.60;57.70;;;;;;6214715;23;20276;-90
2022/08/04 17:16:00;;;;;;;3.17;2.88;;;24.60;57.80;;;;;;6191658;23;20692;-90
2022/08/04 17:18:29;;;;;;;2.72;2.53;;;24.60;57.90;;;;;;6194986;23;20137;-90
2022/08/04 17:20:58;;;;;;;3.03;2.83;;;24.60;58.00;;;;;;6197067;22;20178;-90
2022/08/04 17:23:40;;;;;;;3.47;3.17;;;24.50;58.10;;;;;;6262176;22;20171;-90
2022/08/04 17:26:10;;;;;;;3.28;2.97;;;24.50;58.20;;;;;;6261533;22;20178;-90
2022/08/04 17:28:37;;;;;;;3.10;2.88;;;24.50;58.30;;;;;;6260183;22;20520;-90
2022/08/04 17:31:04;;;;;;;3.42;3.13;;;24.50;58.40;;;;;;6260990;22;20159;-90
2022/08/04 17:33:31;;;;;;;2.90;2.70;;;24.50;58.60;;;;;;6261275;22;20167;-91
2022/08/04 17:35:59;;;;;;;3.50;3.20;;;24.50;58.70;;;;;;6287107;22;20593;-90
2022/08/04 17:38:36;;;;;;;2.90;2.70;;;24.50;58.90;;;;;;6262267;22;20493;-90
2022/08/04 17:41:04;;;;;;;3.10;2.90;;;24.50;59.60;;;;;;6263681;22;20143;-89
2022/08/04 17:43:42;;;;;;;2.88;2.67;;;24.60;58.90;;;;;;6261235;22;20139;-90
2022/08/04 17:46:25;;;;;;;2.70;2.50;;;24.60;59.10;;;;;;6312893;22;20198;-90
2022/08/04 17:49:20;;;;;;;2.88;2.67;;;24.60;59.20;;;;;;6288089;22;20193;-90
2022/08/04 17:51:50;;;;;;;2.60;2.40;;;24.60;59.40;;;;;;6267012;22;20249;-90
2022/08/04 17:54:20;;;;;;;2.75;2.55;;;24.50;59.40;;;;;;6262164;22;20518;-90
2022/08/04 17:56:51;;;;;;;2.83;2.63;;;24.60;59.70;;;;;;6287367;22;20144;-90
2022/08/04 17:59:23;;;;;;;3.08;2.83;;;24.50;60.10;;;;;;6262824;22;20135;-90
2022/08/04 18:01:56;;;;;;;2.90;2.70;;;24.60;60.60;;;;;;6262730;22;20578;-89
2022/08/04 18:04:29;;;;;;;2.85;2.65;;;24.50;60.90;;;;;;6314428;22;20199;-90
2022/08/04 18:07:00;;;;;;;2.55;2.35;;;24.50;60.80;;;;;;6285058;22;20147;-90
2022/08/04 18:09:31;;;;;;;2.83;2.60;;;24.50;60.80;;;;;;6250134;22;20476;-90
2022/08/04 18:12:01;;;;;;;2.90;2.70;;;24.50;61.10;;;;;;6199424;22;20192;-90
2022/08/04 18:14:37;;;;;;;2.83;2.63;;;24.50;61.40;;;;;;6199468;22;20152;-90
2022/08/04 18:17:04;;;;;;;3.58;2.90;;;24.50;61.70;;;;;;6199190;22;20159;-90
2022/08/04 18:19:30;;;;;;;3.08;2.78;;;24.40;62.90;;;;;;6224693;22;20149;-91
2022/08/04 18:21:57;;;;;;;2.90;2.70;;;24.50;62.20;;;;;;6199314;22;20160;-90
2022/08/04 18:24:25;;;;;;;3.15;2.85;;;24.40;62.60;;;;;;6199579;22;20576;-90
2022/08/04 18:26:52;;;;;;;2.80;2.60;;;24.40;62.60;;;;;;6224212;22;20191;-90
2022/08/04 18:29:18;;;;;;;3.10;2.80;;;24.40;62.80;;;;;;6198726;22;20627;-89
2022/08/04 18:31:45;;;;;;;2.90;2.70;;;24.40;63.00;;;;;;6199279;22;20180;-90
2022/08/04 18:34:13;;;;;;;2.63;2.42;;;24.30;63.20;;;;;;6198655;22;20162;-91
2022/08/04 18:36:40;;;;;;;3.20;2.90;;;24.40;63.50;;;;;;6199071;22;20622;-90
2022/08/04 18:39:06;;;;;;;3.10;2.85;;;24.40;63.90;;;;;;6198978;22;20703;-89
2022/08/04 18:41:33;;;;;;;2.85;2.65;;;24.30;64.00;;;;;;6262139;22;20208;-90
2022/08/04 18:44:00;;;;;;;3.10;2.88;;;24.30;64.30;;;;;;6266177;22;20153;-89
2022/08/04 18:46:26;;;;;;;3.17;2.88;;;24.40;64.70;;;;;;6264897;22;20225;-90
2022/08/04 18:48:53;;;;;;;3.25;3.00;;;24.30;64.90;;;;;;6265480;22;20522;-89
2022/08/04 18:51:21;;;;;;;3.53;3.22;;;24.30;65.20;;;;;;6266029;22;20142;-90
2022/08/04 18:53:49;;;;;;;3.30;3.00;;;24.30;65.30;;;;;;6265663;22;20182;-90
2022/08/04 18:56:16;;;;;;;3.47;3.17;;;24.30;65.70;;;;;;6264969;22;20146;-90
2022/08/04 18:58:45;;;;;;;3.70;3.40;;;24.30;65.80;;;;;;6264796;22;20146;-90
2022/08/04 19:01:12;;;;;;;3.33;3.03;;;24.30;66.10;;;;;;6265844;22;20147;-90
2022/08/04 19:03:40;;;;;;;3.72;3.40;;;24.30;66.20;;;;;;6264344;22;20284;-90
2022/08/04 19:06:07;;;;;;;3.63;3.33;;;24.30;66.10;;;;;;6264509;22;20146;-90
2022/08/04 19:08:38;;;;;;;3.63;3.33;;;24.30;66.30;;;;;;6265727;22;20146;-90
2022/08/04 19:11:08;;;;;;;4.00;3.60;;;24.30;66.60;;;;;;6290688;22;20682;-90
2022/08/04 19:13:37;;;;;;;3.78;3.47;;;24.20;66.50;;;;;;6266851;22;20662;-90
2022/08/04 19:16:04;;;;;;;4.00;3.60;;;24.20;67.00;;;;;;6266445;22;20171;-90
2022/08/04 19:18:31;;;;;;;4.13;3.72;;;24.20;66.90;;;;;;6264875;22;20151;-90
2022/08/04 19:20:58;;;;;;;3.90;3.60;;;24.20;67.20;;;;;;6265854;22;20218;-90
2022/08/04 19:23:24;;;;;;;4.13;3.83;;;24.10;67.20;;;;;;6316008;22;20142;-90
2022/08/04 19:25:51;;;;;;;4.03;3.72;;;24.20;67.40;;;;;;6265266;22;20452;-90
2022/08/04 19:28:19;;;;;;;4.40;4.00;;;24.20;67.60;;;;;;6265095;22;20158;-90
2022/08/04 19:30:45;;;;;;;3.92;3.63;;;24.10;67.40;;;;;;6265889;22;20234;-92
2022/08/04 19:33:11;;;;;;;4.07;3.78;;;24.20;67.60;;;;;;6265419;22;20178;-90
2022/08/04 19:35:39;;;;;;;4.13;3.83;;;24.10;67.50;;;;;;6264289;22;20181;-90
2022/08/04 19:38:05;;;;;;;4.00;3.70;;;24.20;67.60;;;;;;6265729;22;20589;-90
2022/08/04 19:40:32;;;;;;;4.45;4.05;;;24.10;67.50;;;;;;6264426;22;20230;-90
2022/08/04 19:43:00;;;;;;;4.57;4.18;;;24.10;67.60;;;;;;6265164;22;20154;-90
2022/08/04 19:45:28;;;;;;;4.72;4.32;;;24.10;67.80;;;;;;6265374;22;20680;-90
2022/08/04 19:47:55;;;;;;;4.78;4.38;;;24.10;67.80;;;;;;6265529;22;20157;-90
2022/08/04 19:50:22;;;;;;;5.05;4.65;;;24.10;68.50;;;;;;6265270;22;20158;-90
2022/08/04 19:52:52;;;;;;;6.10;4.57;;;24.10;67.70;;;;;;6291494;22;20158;-91
2022/08/04 19:55:21;;;;;;;4.90;4.50;;;24.10;67.70;;;;;;6291932;22;20157;-90
2022/08/04 19:57:49;;;;;;;4.68;4.28;;;24.20;67.60;;;;;;6267043;22;20203;-90
2022/08/04 20:00:18;;;;;;;5.20;4.80;;;24.10;67.50;;;;;;6267554;22;20151;-90
2022/08/04 20:02:44;;;;;;;5.43;4.93;;;24.10;67.20;;;;;;6266740;22;20202;-90
2022/08/04 20:05:11;;;;;;;5.55;5.05;;;24.10;67.10;;;;;;6292621;22;20191;-90
2022/08/04 20:07:39;;;;;;;5.47;4.97;;;24.10;67.00;;;;;;6267356;22;20150;-90
2022/08/04 20:10:07;;;;;;;5.35;4.95;;;24.10;66.80;;;;;;6266952;22;20154;-90
2022/08/04 20:12:33;;;;;;;5.65;5.15;;;24.10;66.70;;;;;;6267284;22;20201;-90
2022/08/04 20:14:59;;;;;;;5.78;5.28;;;24.10;66.60;;;;;;6265971;22;20225;-90
2022/08/04 20:17:29;;;;;;;5.88;5.38;;;24.10;66.50;;;;;;6266911;22;20181;-90
2022/08/04 20:19:55;;;;;;;6.15;5.55;;;24.10;66.40;;;;;;6291501;22;20261;-90
2022/08/04 20:22:22;;;;;;;6.05;5.55;;;24.10;66.30;;;;;;6266594;22;20142;-91
2022/08/04 20:24:49;;;;;;;6.28;5.75;;;24.10;66.30;;;;;;6267027;22;20212;-91
2022/08/04 20:27:16;;;;;;;6.32;5.82;;;24.00;66.10;;;;;;6267257;22;20149;-90
2022/08/04 20:29:47;;;;;;;6.70;6.10;;;24.10;66.20;;;;;;6265901;22;20154;-90
2022/08/04 20:32:19;;;;;;;6.18;5.68;;;24.00;66.00;;;;;;6239869;22;20182;-89
2022/08/04 20:34:47;;;;;;;6.72;6.13;;;24.10;66.00;;;;;;6291513;22;20225;-90
2022/08/04 20:37:15;;;;;;;6.63;6.05;;;24.10;66.00;;;;;;6267532;22;20147;-89
2022/08/04 20:39:42;;;;;;;7.28;6.63;;;24.10;66.00;;;;;;6265912;22;20173;-90
2022/08/04 20:42:07;;;;;;;7.28;6.57;;;24.00;66.30;;;;;;6265913;22;20343;-90
2022/08/04 20:44:33;;;;;;;7.43;6.72;;;24.00;66.40;;;;;;6267226;22;20225;-90
2022/08/04 20:47:00;;;;;;;7.22;6.63;;;24.00;66.60;;;;;;6291360;22;20191;-90
2022/08/04 20:49:25;;;;;;;7.28;6.57;;;23.90;66.70;;;;;;6291626;22;20130;-90
2022/08/04 20:51:55;;;;;;;7.10;6.40;;;23.90;66.80;;;;;;6265855;22;20244;-90
2022/08/04 20:54:23;;;;;;;7.63;6.93;;;23.90;66.80;;;;;;6267910;22;20652;-90
2022/08/04 20:56:52;;;;;;;7.63;6.93;;;23.90;66.70;;;;;;6266616;22;20558;-90
2022/08/04 20:59:18;;;;;;;7.30;6.60;;;24.00;66.70;;;;;;6292320;22;20146;-89
2022/08/04 21:01:44;;;;;;;7.50;6.88;;;24.00;66.60;;;;;;6266467;22;20146;-90
2022/08/04 21:06:48;;;;;;;7.43;6.75;;;24.00;66.40;;;;;;6284071;22;20140;-90
2022/08/04 21:09:14;;;;;;;7.57;6.88;;;24.10;66.50;;;;;;6266609;22;20218;-90
2022/08/04 21:11:43;;;;;;;8.20;7.50;;;24.00;66.40;;;;;;6266608;22;20173;-90
2022/08/04 21:14:10;;;;;;;7.45;6.82;;;24.00;66.40;;;;;;6266496;22;20154;-90
2022/08/04 21:16:37;;;;;;;7.78;7.07;;;24.00;66.40;;;;;;6265443;22;20188;-89
2022/08/04 21:19:03;;;;;;;7.68;6.97;;;24.00;66.40;;;;;;6266521;22;20154;-90
2022/08/04 21:21:30;;;;;;;8.43;7.63;;;24.10;67.00;;;;;;6292133;22;20147;-90
2022/08/04 21:23:56;;;;;;;8.75;7.90;;;24.00;66.30;;;;;;6265499;22;20158;-90
2022/08/04 21:26:23;;;;;;;8.50;7.70;;;24.00;66.30;;;;;;6265879;22;20454;-90
2022/08/04 21:28:50;;;;;;;8.20;7.47;;;24.00;66.40;;;;;;6266274;22;20173;-90
2022/08/04 21:31:16;;;;;;;7.75;7.05;;;24.00;66.50;;;;;;6266701;22;20154;-90
2022/08/04 21:33:43;;;;;;;8.52;7.72;;;24.00;66.50;;;;;;6291455;22;20236;-90
2022/08/04 21:36:11;;;;;;;8.55;7.75;;;24.00;66.50;;;;;;6265571;22;20585;-90
2022/08/04 21:38:37;;;;;;;8.00;7.30;;;24.00;66.50;;;;;;6266340;22;20178;-90
2022/08/04 21:41:04;;;;;;;8.85;8.05;;;23.90;66.40;;;;;;6266603;22;20146;-90
2022/08/04 21:43:30;;;;;;;8.40;7.60;;;24.00;66.50;;;;;;6265654;22;20485;-90
2022/08/04 21:45:58;;;;;;;8.23;7.53;;;24.00;66.50;;;;;;6265977;22;20211;-90
2022/08/04 21:48:26;;;;;;;8.82;8.02;;;24.00;66.50;;;;;;6265284;22;20307;-90
2022/08/04 21:50:54;;;;;;;8.88;8.07;;;24.00;66.70;;;;;;6265339;22;20160;-89
2022/08/04 21:53:22;;;;;;;9.57;8.68;;;24.00;66.50;;;;;;6266387;22;20182;-90
2022/08/04 21:55:49;;;;;;;9.25;8.35;;;24.00;66.50;;;;;;6265782;22;20150;-90
2022/08/04 21:58:15;;;;;;;9.13;8.30;;;23.90;66.40;;;;;;6266213;22;20142;-89
2022/08/04 22:00:56;;;;;;;8.50;7.70;;;23.90;66.40;;;;;;6265221;22;20146;-90
2022/08/04 22:03:25;;;;;;;9.68;8.68;;;23.90;66.50;;;;;;6290858;22;20276;-90
2022/08/04 22:06:14;;;;;;;9.18;8.27;;;23.90;66.50;;;;;;6214071;23;20169;-90
2022/08/04 22:08:57;;;;;;;9.13;8.23;;;23.90;66.50;;;;;;6190111;23;20150;-90
2022/08/04 22:11:50;;;;;;;8.90;8.05;;;23.90;66.50;;;;;;6189312;23;20290;-90
2022/08/04 22:14:17;;;;;;;9.57;8.68;;;23.90;66.50;;;;;;6160017;23;20163;-89
2022/08/04 22:16:50;;;;;;;9.38;8.48;;;23.90;66.70;;;;;;6183626;23;20158;-89
2022/08/04 22:19:30;;;;;;;8.90;8.05;;;23.80;66.60;;;;;;6183835;23;20158;-90
2022/08/04 22:22:06;;;;;;;8.93;8.10;;;23.90;66.70;;;;;;6207280;23;20613;-91
2022/08/04 22:24:59;;;;;;;8.80;8.00;;;23.80;66.70;;;;;;6184161;23;20194;-90
2022/08/04 22:30:25;;;;;;;9.30;8.40;;;23.80;66.60;;;;;;6207680;23;20159;-90
2022/08/04 22:33:24;;;;;;;9.55;8.57;;;23.80;66.70;;;;;;6134926;23;20194;-89
2022/08/04 22:36:05;;;;;;;9.00;8.15;;;23.80;66.60;;;;;;6142851;23;20242;-90
2022/08/04 22:38:40;;;;;;;9.75;8.77;;;23.70;66.70;;;;;;6188327;23;20177;-89
2022/08/04 22:41:10;;;;;;;10.48;9.48;;;23.80;66.70;;;;;;6213863;23;20208;-90
2022/08/04 22:43:43;;;;;;;10.07;9.18;;;23.80;66.80;;;;;;6183844;23;20201;-90
2022/08/04 22:46:21;;;;;;;9.95;9.05;;;23.80;66.90;;;;;;6235061;23;20157;-90
2022/08/04 22:48:49;;;;;;;9.73;8.80;;;23.80;67.00;;;;;;6195603;23;20188;-90
2022/08/04 22:51:18;;;;;;;9.32;8.43;;;23.80;67.10;;;;;;6193875;23;20160;-90
2022/08/04 22:53:51;;;;;;;8.65;7.85;;;23.80;67.10;;;;;;6194460;23;20628;-90
2022/08/04 22:56:37;;;;;;;8.80;8.00;;;23.80;67.30;;;;;;6165741;23;20157;-90
2022/08/04 22:59:03;;;;;;;8.70;7.90;;;23.70;67.30;;;;;;6167184;23;20165;-89
2022/08/04 23:01:41;;;;;;;8.90;8.07;;;23.70;67.40;;;;;;6184213;23;20491;-90
2022/08/04 23:04:24;;;;;;;8.98;8.15;;;23.70;67.50;;;;;;6208126;23;20209;-90
2022/08/04 23:06:53;;;;;;;9.50;8.63;;;23.70;67.50;;;;;;6181572;23;20169;-90
2022/08/04 23:09:25;;;;;;;9.43;8.52;;;23.70;67.50;;;;;;6195755;23;20254;-89
2022/08/04 23:12:00;;;;;;;9.43;8.52;;;23.70;67.40;;;;;;6164062;23;20158;-91
2022/08/04 23:14:58;;;;;;;9.05;8.25;;;23.70;67.50;;;;;;6208421;23;20237;-89
2022/08/04 23:17:38;;;;;;;9.00;8.10;;;23.70;67.50;;;;;;6188582;23;20154;-91
2022/08/04 23:20:13;;;;;;;9.18;8.27;;;23.60;67.60;;;;;;6136742;23;20154;-90
2022/08/04 23:22:43;;;;;;;9.50;8.60;;;23.70;67.60;;;;;;6152973;23;20154;-90
2022/08/04 23:25:16;;;;;;;9.32;8.50;;;23.60;67.60;;;;;;6153830;23;20312;-90
2022/08/04 23:27:55;;;;;;;8.77;7.97;;;23.60;67.70;;;;;;6216114;23;20157;-90
2022/08/04 23:30:23;;;;;;;8.95;8.13;;;23.60;67.70;;;;;;6245479;23;20185;-90
2022/08/04 23:32:57;;;;;;;9.80;8.90;;;23.60;67.70;;;;;;6220724;23;20188;-90
2022/08/04 23:35:31;;;;;;;9.40;8.50;;;23.60;67.70;;;;;;6220286;23;20168;-89
2022/08/04 23:38:11;;;;;;;9.93;8.93;;;23.60;67.80;;;;;;6220389;23;20157;-90
2022/08/04 23:40:54;;;;;;;10.15;9.15;;;23.60;67.80;;;;;;6219895;23;20149;-90
2022/08/04 23:43:46;;;;;;;9.85;8.95;;;23.60;67.90;;;;;;6245799;23;20160;-90
2022/08/04 23:46:23;;;;;;;9.60;8.70;;;23.50;67.80;;;;;;6149091;23;20158;-90
2022/08/04 23:49:01;;;;;;;10.55;9.52;;;23.50;67.90;;;;;;6198734;23;20158;-90
2022/08/04 23:51:53;;;;;;;10.35;9.25;;;23.50;67.90;;;;;;6167685;23;20181;-89
2022/08/04 23:54:27;;;;;;;9.73;8.82;;;23.60;68.00;;;;;;6193456;23;20154;-90
2022/08/04 23:57:00;;;;;;;10.00;9.10;;;23.50;67.90;;;;;;6108607;23;20245;-89
2022/08/04 23:59:44;;;;;;;9.48;8.57;;;23.50;68.00;;;;;;6102247;23;20152;-90
